sensor_id;sensor_type;location;lat;lon;timestamp;pressure;altitude;pressure_sealevel;temperature;humidity
3748;BME280;1889;50.058;8.688;2023-04-22T00:00:38;99605.37;;;16.32;56.65
3748;BME280;1889;50.058;8.688;2023-04-22T00:03:08;99603.13;;;16.33;56.57
3748;BME280;1889;50.058;8.688;2023-04-22T00:05:37;99607.43;;;16.36;56.26
3748;BME280;1889;50.058;8.688;2023-04-22T00:08:07;99605.78;;;16.33;56.42
3748;BME280;1889;50.058;8.688;2023-04-22T00:10:36;99604.91;;;16.33;56.64
3748;BME280;1889;50.058;8.688;2023-04-22T00:13:06;99601.86;;;16.32;56.70
3748;BME280;1889;50.058;8.688;2023-04-22T00:15:35;99599.20;;;16.32;56.93
3748;BME280;1889;50.058;8.688;2023-04-22T00:18:04;99598.13;;;16.36;56.81
3748;BME280;1889;50.058;8.688;2023-04-22T00:20:34;99596.56;;;16.40;56.63
3748;BME280;1889;50.058;8.688;2023-04-22T00:23:03;99602.33;;;16.31;56.74
3748;BME280;1889;50.058;8.688;2023-04-22T00:25:33;99598.80;;;16.22;56.90
3748;BME280;1889;50.058;8.688;2023-04-22T00:28:02;99600.96;;;15.78;58.08
3748;BME280;1889;50.058;8.688;2023-04-22T00:30:31;99591.94;;;15.63;58.46
3748;BME280;1889;50.058;8.688;2023-04-22T00:33:01;99591.94;;;15.63;58.46
3748;BME280;1889;50.058;8.688;2023-04-22T00:35:30;99589.72;;;15.82;58.26
3748;BME280;1889;50.058;8.688;2023-04-22T00:37:59;99593.72;;;15.90;57.95
3748;BME280;1889;50.058;8.688;2023-04-22T00:40:29;99587.19;;;15.89;57.83
3748;BME280;1889;50.058;8.688;2023-04-22T00:42:59;99587.81;;;15.94;57.54
3748;BME280;1889;50.058;8.688;2023-04-22T00:45:29;99582.55;;;15.84;57.94
3748;BME280;1889;50.058;8.688;2023-04-22T00:47:59;99586.23;;;15.90;57.96
3748;BME280;1889;50.058;8.688;2023-04-22T00:50:29;99590.47;;;15.94;57.98
3748;BME280;1889;50.058;8.688;2023-04-22T00:52:58;99590.54;;;15.92;57.91
3748;BME280;1889;50.058;8.688;2023-04-22T00:55:28;99586.98;;;16.02;57.82
3748;BME280;1889;50.058;8.688;2023-04-22T00:57:59;99589.63;;;16.02;57.72
3748;BME280;1889;50.058;8.688;2023-04-22T01:00:28;99589.84;;;15.89;58.15
3748;BME280;1889;50.058;8.688;2023-04-22T01:02:58;99594.75;;;15.88;58.17
3748;BME280;1889;50.058;8.688;2023-04-22T01:05:29;99583.04;;;15.92;58.07
3748;BME280;1889;50.058;8.688;2023-04-22T01:08:00;99585.53;;;15.86;58.27
3748;BME280;1889;50.058;8.688;2023-04-22T01:10:29;99581.55;;;15.86;58.45
3748;BME280;1889;50.058;8.688;2023-04-22T01:12:58;99574.94;;;15.95;58.24
3748;BME280;1889;50.058;8.688;2023-04-22T01:15:28;99574.61;;;15.92;58.15
3748;BME280;1889;50.058;8.688;2023-04-22T01:17:58;99564.99;;;15.90;58.30
3748;BME280;1889;50.058;8.688;2023-04-22T01:20:29;99569.98;;;15.79;58.53
3748;BME280;1889;50.058;8.688;2023-04-22T01:23:01;99570.67;;;15.82;58.63
3748;BME280;1889;50.058;8.688;2023-04-22T01:25:31;99572.86;;;15.83;58.73
3748;BME280;1889;50.058;8.688;2023-04-22T01:28:02;99573.79;;;15.82;58.92
3748;BME280;1889;50.058;8.688;2023-04-22T01:30:31;99574.02;;;15.77;59.00
3748;BME280;1889;50.058;8.688;2023-04-22T01:33:01;99580.99;;;15.80;58.91
3748;BME280;1889;50.058;8.688;2023-04-22T01:35:31;99569.78;;;15.73;59.15
3748;BME280;1889;50.058;8.688;2023-04-22T01:38:04;99568.22;;;15.69;59.38
3748;BME280;1889;50.058;8.688;2023-04-22T01:40:34;99575.02;;;15.75;59.17
3748;BME280;1889;50.058;8.688;2023-04-22T01:43:03;99574.56;;;15.75;59.11
3748;BME280;1889;50.058;8.688;2023-04-22T01:45:33;99575.02;;;15.75;59.20
3748;BME280;1889;50.058;8.688;2023-04-22T01:48:02;99566.97;;;15.68;59.40
3748;BME280;1889;50.058;8.688;2023-04-22T01:50:34;99565.70;;;15.18;61.03
3748;BME280;1889;50.058;8.688;2023-04-22T01:53:03;99566.14;;;15.28;60.62
3748;BME280;1889;50.058;8.688;2023-04-22T01:55:34;99557.90;;;15.34;60.48
3748;BME280;1889;50.058;8.688;2023-04-22T01:58:04;99563.83;;;15.31;60.67
3748;BME280;1889;50.058;8.688;2023-04-22T02:00:34;99571.13;;;15.44;60.35
3748;BME280;1889;50.058;8.688;2023-04-22T02:03:03;99577.69;;;15.17;61.16
3748;BME280;1889;50.058;8.688;2023-04-22T02:05:33;99583.27;;;15.21;61.16
3748;BME280;1889;50.058;8.688;2023-04-22T02:08:03;99573.30;;;14.87;62.39
3748;BME280;1889;50.058;8.688;2023-04-22T02:10:32;99578.33;;;14.21;65.35
3748;BME280;1889;50.058;8.688;2023-04-22T02:13:02;99577.00;;;14.21;65.61
3748;BME280;1889;50.058;8.688;2023-04-22T02:15:31;99573.64;;;14.69;63.79
3748;BME280;1889;50.058;8.688;2023-04-22T02:18:00;99582.05;;;14.89;62.85
3748;BME280;1889;50.058;8.688;2023-04-22T02:20:30;99573.08;;;15.02;62.43
3748;BME280;1889;50.058;8.688;2023-04-22T02:22:59;99571.11;;;15.07;62.17
3748;BME280;1889;50.058;8.688;2023-04-22T02:25:29;99575.72;;;15.12;62.07
3748;BME280;1889;50.058;8.688;2023-04-22T02:27:59;99580.74;;;15.18;61.93
3748;BME280;1889;50.058;8.688;2023-04-22T02:30:28;99579.23;;;15.22;61.79
3748;BME280;1889;50.058;8.688;2023-04-22T02:32:58;99584.48;;;15.33;61.35
3748;BME280;1889;50.058;8.688;2023-04-22T02:35:28;99586.08;;;15.37;61.31
3748;BME280;1889;50.058;8.688;2023-04-22T02:37:57;99589.46;;;15.40;61.26
3748;BME280;1889;50.058;8.688;2023-04-22T02:40:27;99588.27;;;15.37;61.34
3748;BME280;1889;50.058;8.688;2023-04-22T02:42:56;99594.88;;;15.47;61.14
3748;BME280;1889;50.058;8.688;2023-04-22T02:45:25;99585.19;;;15.46;61.20
3748;BME280;1889;50.058;8.688;2023-04-22T02:47:55;99593.80;;;15.41;61.28
3748;BME280;1889;50.058;8.688;2023-04-22T02:50:24;99587.00;;;15.36;61.40
3748;BME280;1889;50.058;8.688;2023-04-22T02:52:53;99588.50;;;15.41;61.21
3748;BME280;1889;50.058;8.688;2023-04-22T02:55:23;99586.12;;;15.45;61.15
3748;BME280;1889;50.058;8.688;2023-04-22T02:57:52;99574.52;;;15.48;61.05
3748;BME280;1889;50.058;8.688;2023-04-22T03:00:22;99573.49;;;15.50;60.98
3748;BME280;1889;50.058;8.688;2023-04-22T03:02:51;99569.52;;;15.50;60.92
3748;BME280;1889;50.058;8.688;2023-04-22T03:05:20;99566.00;;;15.50;60.85
3748;BME280;1889;50.058;8.688;2023-04-22T03:07:50;99568.95;;;15.54;60.76
3748;BME280;1889;50.058;8.688;2023-04-22T03:10:19;99572.56;;;15.51;60.73
3748;BME280;1889;50.058;8.688;2023-04-22T03:12:49;99568.81;;;15.47;60.80
3748;BME280;1889;50.058;8.688;2023-04-22T03:15:18;99571.22;;;15.14;61.90
3748;BME280;1889;50.058;8.688;2023-04-22T03:17:47;99575.91;;;15.17;61.82
3748;BME280;1889;50.058;8.688;2023-04-22T03:20:17;99570.02;;;15.11;61.97
3748;BME280;1889;50.058;8.688;2023-04-22T03:22:46;99575.33;;;15.01;62.45
3748;BME280;1889;50.058;8.688;2023-04-22T03:25:15;99584.82;;;15.06;62.28
3748;BME280;1889;50.058;8.688;2023-04-22T03:27:45;99580.10;;;15.13;62.24
3748;BME280;1889;50.058;8.688;2023-04-22T03:30:14;99580.61;;;15.21;61.98
3748;BME280;1889;50.058;8.688;2023-04-22T03:32:43;99584.99;;;15.22;62.02
3748;BME280;1889;50.058;8.688;2023-04-22T03:35:13;99578.36;;;15.22;62.02
3748;BME280;1889;50.058;8.688;2023-04-22T03:37:42;99581.52;;;15.30;61.79
3748;BME280;1889;50.058;8.688;2023-04-22T03:40:12;99579.34;;;15.30;61.74
3748;BME280;1889;50.058;8.688;2023-04-22T03:42:41;99583.31;;;15.30;61.87
3748;BME280;1889;50.058;8.688;2023-04-22T03:45:10;99582.78;;;15.32;61.76
3748;BME280;1889;50.058;8.688;2023-04-22T03:47:40;99577.72;;;15.36;61.72
3748;BME280;1889;50.058;8.688;2023-04-22T03:50:10;99576.00;;;15.35;61.60
3748;BME280;1889;50.058;8.688;2023-04-22T03:52:39;99575.13;;;15.34;61.70
3748;BME280;1889;50.058;8.688;2023-04-22T03:55:09;99579.06;;;15.25;61.92
3748;BME280;1889;50.058;8.688;2023-04-22T03:57:38;99586.43;;;15.29;61.76
3748;BME280;1889;50.058;8.688;2023-04-22T04:00:08;99588.09;;;15.32;61.58
3748;BME280;1889;50.058;8.688;2023-04-22T04:02:38;99580.20;;;15.30;61.52
3748;BME280;1889;50.058;8.688;2023-04-22T04:05:07;99581.36;;;15.14;61.67
3748;BME280;1889;50.058;8.688;2023-04-22T04:07:38;99581.36;;;15.14;61.67
3748;BME280;1889;50.058;8.688;2023-04-22T04:10:08;99577.62;;;15.00;62.23
3748;BME280;1889;50.058;8.688;2023-04-22T04:12:37;99573.02;;;15.03;61.96
3748;BME280;1889;50.058;8.688;2023-04-22T04:15:07;99574.16;;;14.98;62.23
3748;BME280;1889;50.058;8.688;2023-04-22T04:17:36;99574.75;;;15.04;62.08
3748;BME280;1889;50.058;8.688;2023-04-22T04:20:06;99570.69;;;14.67;63.18
3748;BME280;1889;50.058;8.688;2023-04-22T04:22:36;99575.44;;;14.37;64.33
3748;BME280;1889;50.058;8.688;2023-04-22T04:25:06;99569.30;;;14.26;64.79
3748;BME280;1889;50.058;8.688;2023-04-22T04:27:36;99567.89;;;14.49;63.99
3748;BME280;1889;50.058;8.688;2023-04-22T04:30:07;99569.88;;;14.65;63.41
3748;BME280;1889;50.058;8.688;2023-04-22T04:32:37;99567.34;;;14.62;63.43
3748;BME280;1889;50.058;8.688;2023-04-22T04:35:07;99563.72;;;14.64;63.28
3748;BME280;1889;50.058;8.688;2023-04-22T04:37:36;99564.69;;;14.51;63.60
3748;BME280;1889;50.058;8.688;2023-04-22T04:40:07;99554.91;;;14.54;63.61
3748;BME280;1889;50.058;8.688;2023-04-22T04:42:38;99553.53;;;14.75;62.86
3748;BME280;1889;50.058;8.688;2023-04-22T04:45:08;99547.95;;;14.61;63.18
3748;BME280;1889;50.058;8.688;2023-04-22T04:47:37;99551.21;;;14.58;63.35
3748;BME280;1889;50.058;8.688;2023-04-22T04:50:07;99547.70;;;14.57;63.42
3748;BME280;1889;50.058;8.688;2023-04-22T04:52:36;99552.24;;;14.43;63.87
3748;BME280;1889;50.058;8.688;2023-04-22T04:55:06;99550.27;;;14.38;64.01
3748;BME280;1889;50.058;8.688;2023-04-22T04:57:35;99561.89;;;14.34;64.35
3748;BME280;1889;50.058;8.688;2023-04-22T05:00:05;99563.05;;;14.27;64.57
3748;BME280;1889;50.058;8.688;2023-04-22T05:02:35;99565.33;;;14.04;65.31
3748;BME280;1889;50.058;8.688;2023-04-22T05:05:05;99568.23;;;13.98;65.66
3748;BME280;1889;50.058;8.688;2023-04-22T05:07:34;99566.80;;;14.11;65.25
3748;BME280;1889;50.058;8.688;2023-04-22T05:10:04;99558.84;;;14.33;64.60
3748;BME280;1889;50.058;8.688;2023-04-22T05:12:33;99558.55;;;14.41;64.35
3748;BME280;1889;50.058;8.688;2023-04-22T05:15:03;99557.36;;;14.48;64.07
3748;BME280;1889;50.058;8.688;2023-04-22T05:17:32;99555.77;;;14.54;63.87
3748;BME280;1889;50.058;8.688;2023-04-22T05:20:02;99554.32;;;14.57;63.84
3748;BME280;1889;50.058;8.688;2023-04-22T05:22:33;99558.88;;;14.64;63.77
3748;BME280;1889;50.058;8.688;2023-04-22T05:25:05;99555.66;;;14.67;63.76
3748;BME280;1889;50.058;8.688;2023-04-22T05:27:34;99556.36;;;14.71;63.71
3748;BME280;1889;50.058;8.688;2023-04-22T05:30:04;99549.68;;;14.72;63.54
3748;BME280;1889;50.058;8.688;2023-04-22T05:32:34;99553.44;;;14.77;63.30
3748;BME280;1889;50.058;8.688;2023-04-22T05:35:04;99556.70;;;14.73;63.32
3748;BME280;1889;50.058;8.688;2023-04-22T05:37:33;99558.89;;;14.74;63.46
3748;BME280;1889;50.058;8.688;2023-04-22T05:40:03;99568.47;;;14.76;63.46
3748;BME280;1889;50.058;8.688;2023-04-22T05:42:33;99567.76;;;14.73;63.56
3748;BME280;1889;50.058;8.688;2023-04-22T05:45:02;99572.53;;;14.75;63.54
3748;BME280;1889;50.058;8.688;2023-04-22T05:47:32;99581.14;;;14.38;64.88
3748;BME280;1889;50.058;8.688;2023-04-22T05:50:01;99577.48;;;14.42;64.49
3748;BME280;1889;50.058;8.688;2023-04-22T05:52:31;99578.95;;;14.49;64.26
3748;BME280;1889;50.058;8.688;2023-04-22T05:55:00;99578.96;;;14.59;64.07
3748;BME280;1889;50.058;8.688;2023-04-22T05:57:30;99584.16;;;14.61;64.16
3748;BME280;1889;50.058;8.688;2023-04-22T06:00:02;99586.56;;;14.25;65.80
3748;BME280;1889;50.058;8.688;2023-04-22T06:02:31;99576.55;;;14.21;66.17
3748;BME280;1889;50.058;8.688;2023-04-22T06:05:00;99582.86;;;14.50;65.27
3748;BME280;1889;50.058;8.688;2023-04-22T06:07:29;99590.20;;;14.64;64.91
3748;BME280;1889;50.058;8.688;2023-04-22T06:09:58;99583.63;;;14.53;65.62
3748;BME280;1889;50.058;8.688;2023-04-22T06:12:28;99583.17;;;14.53;65.50
3748;BME280;1889;50.058;8.688;2023-04-22T06:14:57;99580.02;;;14.65;65.11
3748;BME280;1889;50.058;8.688;2023-04-22T06:17:26;99577.73;;;14.76;64.80
3748;BME280;1889;50.058;8.688;2023-04-22T06:19:56;99574.97;;;14.89;64.66
3748;BME280;1889;50.058;8.688;2023-04-22T06:22:25;99575.61;;;14.95;64.40
3748;BME280;1889;50.058;8.688;2023-04-22T06:24:54;99583.69;;;15.02;64.32
3748;BME280;1889;50.058;8.688;2023-04-22T06:27:23;99584.08;;;15.03;64.47
3748;BME280;1889;50.058;8.688;2023-04-22T06:29:53;99585.98;;;15.09;64.42
3748;BME280;1889;50.058;8.688;2023-04-22T06:32:23;99579.98;;;15.16;64.33
3748;BME280;1889;50.058;8.688;2023-04-22T06:34:52;99584.83;;;15.25;64.01
3748;BME280;1889;50.058;8.688;2023-04-22T06:37:21;99585.45;;;15.21;64.12
3748;BME280;1889;50.058;8.688;2023-04-22T06:39:50;99589.48;;;15.30;63.88
3748;BME280;1889;50.058;8.688;2023-04-22T06:42:20;99594.08;;;15.45;63.29
3748;BME280;1889;50.058;8.688;2023-04-22T06:44:49;99594.31;;;15.49;62.73
3748;BME280;1889;50.058;8.688;2023-04-22T06:47:19;99591.20;;;15.60;61.95
3748;BME280;1889;50.058;8.688;2023-04-22T06:49:48;99591.88;;;15.74;61.37
3748;BME280;1889;50.058;8.688;2023-04-22T06:52:17;99592.83;;;15.73;61.67
3748;BME280;1889;50.058;8.688;2023-04-22T06:54:48;99590.94;;;15.75;61.77
3748;BME280;1889;50.058;8.688;2023-04-22T06:57:18;99582.28;;;15.71;61.78
3748;BME280;1889;50.058;8.688;2023-04-22T06:59:47;99588.25;;;15.85;60.88
3748;BME280;1889;50.058;8.688;2023-04-22T07:02:17;99582.67;;;15.99;60.09
3748;BME280;1889;50.058;8.688;2023-04-22T07:04:46;99587.75;;;15.95;60.29
3748;BME280;1889;50.058;8.688;2023-04-22T07:07:15;99584.79;;;16.01;60.15
3748;BME280;1889;50.058;8.688;2023-04-22T07:09:45;99583.00;;;16.02;60.19
3748;BME280;1889;50.058;8.688;2023-04-22T07:12:14;99586.80;;;15.88;60.38
3748;BME280;1889;50.058;8.688;2023-04-22T07:14:44;99583.30;;;15.96;60.30
3748;BME280;1889;50.058;8.688;2023-04-22T07:17:14;99595.94;;;15.99;60.13
3748;BME280;1889;50.058;8.688;2023-04-22T07:19:45;99595.25;;;15.96;59.96
3748;BME280;1889;50.058;8.688;2023-04-22T07:22:14;99597.83;;;16.06;59.69
3748;BME280;1889;50.058;8.688;2023-04-22T07:24:43;99593.48;;;16.05;59.28
3748;BME280;1889;50.058;8.688;2023-04-22T07:27:13;99593.56;;;16.12;59.46
3748;BME280;1889;50.058;8.688;2023-04-22T07:29:42;99591.80;;;16.21;59.13
3748;BME280;1889;50.058;8.688;2023-04-22T07:32:12;99584.66;;;16.22;58.70
3748;BME280;1889;50.058;8.688;2023-04-22T07:34:41;99577.09;;;16.23;58.94
3748;BME280;1889;50.058;8.688;2023-04-22T07:37:10;99576.20;;;16.14;59.13
3748;BME280;1889;50.058;8.688;2023-04-22T07:39:40;99578.03;;;16.30;59.10
3748;BME280;1889;50.058;8.688;2023-04-22T07:42:09;99568.92;;;16.36;58.43
3748;BME280;1889;50.058;8.688;2023-04-22T07:44:39;99575.56;;;16.45;58.50
3748;BME280;1889;50.058;8.688;2023-04-22T07:47:09;99569.61;;;16.48;58.33
3748;BME280;1889;50.058;8.688;2023-04-22T07:49:38;99568.39;;;16.64;58.01
3748;BME280;1889;50.058;8.688;2023-04-22T07:52:07;99565.62;;;16.39;57.11
3748;BME280;1889;50.058;8.688;2023-04-22T07:54:37;99564.87;;;16.63;57.33
3748;BME280;1889;50.058;8.688;2023-04-22T07:57:06;99559.61;;;16.88;57.24
3748;BME280;1889;50.058;8.688;2023-04-22T07:59:36;99559.17;;;17.12;55.75
3748;BME280;1889;50.058;8.688;2023-04-22T08:02:05;99559.17;;;17.12;55.75
3748;BME280;1889;50.058;8.688;2023-04-22T08:04:34;99555.55;;;17.22;55.92
3748;BME280;1889;50.058;8.688;2023-04-22T08:07:04;99555.39;;;17.49;54.83
3748;BME280;1889;50.058;8.688;2023-04-22T08:09:33;99553.08;;;17.59;55.05
3748;BME280;1889;50.058;8.688;2023-04-22T08:12:03;99551.75;;;17.59;54.21
3748;BME280;1889;50.058;8.688;2023-04-22T08:14:32;99552.41;;;17.71;53.27
3748;BME280;1889;50.058;8.688;2023-04-22T08:17:01;99552.06;;;17.53;53.07
3748;BME280;1889;50.058;8.688;2023-04-22T08:19:31;99552.06;;;17.53;53.39
3748;BME280;1889;50.058;8.688;2023-04-22T08:22:00;99549.36;;;17.70;53.29
3748;BME280;1889;50.058;8.688;2023-04-22T08:24:29;99550.09;;;17.81;52.62
3748;BME280;1889;50.058;8.688;2023-04-22T08:26:58;99556.80;;;17.72;53.00
3748;BME280;1889;50.058;8.688;2023-04-22T08:29:29;99546.19;;;17.64;52.65
3748;BME280;1889;50.058;8.688;2023-04-22T08:31:59;99555.78;;;17.50;53.00
3748;BME280;1889;50.058;8.688;2023-04-22T08:34:28;99546.04;;;17.58;52.64
3748;BME280;1889;50.058;8.688;2023-04-22T08:36:57;99539.09;;;17.87;53.13
3748;BME280;1889;50.058;8.688;2023-04-22T08:39:27;99542.70;;;18.09;52.55
3748;BME280;1889;50.058;8.688;2023-04-22T08:41:56;99541.64;;;18.27;52.02
3748;BME280;1889;50.058;8.688;2023-04-22T08:44:26;99539.48;;;18.41;52.14
3748;BME280;1889;50.058;8.688;2023-04-22T08:46:55;99548.39;;;18.48;51.45
3748;BME280;1889;50.058;8.688;2023-04-22T08:49:25;99546.34;;;18.60;51.10
3748;BME280;1889;50.058;8.688;2023-04-22T08:51:55;99542.52;;;18.57;50.81
3748;BME280;1889;50.058;8.688;2023-04-22T08:54:24;99540.38;;;18.71;50.39
3748;BME280;1889;50.058;8.688;2023-04-22T08:56:53;99540.38;;;18.71;50.39
3748;BME280;1889;50.058;8.688;2023-04-22T08:59:23;99542.48;;;18.80;48.38
3748;BME280;1889;50.058;8.688;2023-04-22T09:01:53;99539.70;;;18.75;49.39
3748;BME280;1889;50.058;8.688;2023-04-22T09:04:23;99536.56;;;18.89;49.34
3748;BME280;1889;50.058;8.688;2023-04-22T09:06:53;99536.56;;;18.89;49.66
3748;BME280;1889;50.058;8.688;2023-04-22T09:09:23;99533.07;;;19.10;49.35
3748;BME280;1889;50.058;8.688;2023-04-22T09:11:52;99526.60;;;19.21;47.27
3748;BME280;1889;50.058;8.688;2023-04-22T09:14:22;99517.61;;;19.22;47.34
3748;BME280;1889;50.058;8.688;2023-04-22T09:16:51;99519.80;;;19.30;47.98
3748;BME280;1889;50.058;8.688;2023-04-22T09:19:22;99525.73;;;19.49;47.99
3748;BME280;1889;50.058;8.688;2023-04-22T09:21:52;99520.93;;;19.68;47.11
3748;BME280;1889;50.058;8.688;2023-04-22T09:24:22;99523.53;;;19.49;47.00
3748;BME280;1889;50.058;8.688;2023-04-22T09:26:56;99523.53;;;19.49;47.00
3748;BME280;1889;50.058;8.688;2023-04-22T09:29:29;99532.09;;;20.02;46.50
3748;BME280;1889;50.058;8.688;2023-04-22T09:31:59;99525.66;;;19.70;45.63
3748;BME280;1889;50.058;8.688;2023-04-22T09:34:28;99532.88;;;19.49;46.37
3748;BME280;1889;50.058;8.688;2023-04-22T09:36:58;99532.88;;;19.49;46.37
3748;BME280;1889;50.058;8.688;2023-04-22T09:39:28;99528.61;;;19.80;46.74
3748;BME280;1889;50.058;8.688;2023-04-22T09:41:58;99531.35;;;20.12;45.87
3748;BME280;1889;50.058;8.688;2023-04-22T09:44:28;99531.35;;;20.12;45.87
3748;BME280;1889;50.058;8.688;2023-04-22T09:46:58;99524.88;;;20.29;45.48
3748;BME280;1889;50.058;8.688;2023-04-22T09:49:28;99522.73;;;20.61;45.47
3748;BME280;1889;50.058;8.688;2023-04-22T09:51:57;99517.94;;;20.34;44.82
3748;BME280;1889;50.058;8.688;2023-04-22T09:54:26;99517.94;;;20.34;44.82
3748;BME280;1889;50.058;8.688;2023-04-22T09:56:56;99516.19;;;20.33;46.71
3748;BME280;1889;50.058;8.688;2023-04-22T09:59:27;99509.88;;;20.53;46.67
3748;BME280;1889;50.058;8.688;2023-04-22T10:02:00;99509.88;;;20.53;46.67
3748;BME280;1889;50.058;8.688;2023-04-22T10:04:34;99512.69;;;20.65;45.53
3748;BME280;1889;50.058;8.688;2023-04-22T10:07:03;99512.69;;;20.65;45.53
3748;BME280;1889;50.058;8.688;2023-04-22T10:09:32;99506.91;;;20.71;45.91
3748;BME280;1889;50.058;8.688;2023-04-22T10:12:02;99510.36;;;20.53;45.69
3748;BME280;1889;50.058;8.688;2023-04-22T10:14:32;99502.30;;;20.20;45.76
3748;BME280;1889;50.058;8.688;2023-04-22T10:17:02;99498.30;;;20.20;46.37
3748;BME280;1889;50.058;8.688;2023-04-22T10:19:32;99494.80;;;20.40;45.82
3748;BME280;1889;50.058;8.688;2023-04-22T10:22:03;99490.03;;;20.31;46.57
3748;BME280;1889;50.058;8.688;2023-04-22T10:24:35;99491.37;;;20.31;46.36
3748;BME280;1889;50.058;8.688;2023-04-22T10:27:05;99493.36;;;20.54;45.98
3748;BME280;1889;50.058;8.688;2023-04-22T10:29:37;99491.30;;;20.65;45.15
3748;BME280;1889;50.058;8.688;2023-04-22T10:34:48;99483.16;;;20.79;45.74
3748;BME280;1889;50.058;8.688;2023-04-22T10:37:19;99492.17;;;21.09;44.94
3748;BME280;1889;50.058;8.688;2023-04-22T10:40:10;99491.63;;;21.16;45.38
3748;BME280;1889;50.058;8.688;2023-04-22T10:42:41;99486.39;;;21.40;45.16
3748;BME280;1889;50.058;8.688;2023-04-22T10:45:14;99472.44;;;21.48;44.21
3748;BME280;1889;50.058;8.688;2023-04-22T10:47:43;99476.16;;;21.40;43.48
3748;BME280;1889;50.058;8.688;2023-04-22T10:50:21;99474.26;;;21.47;44.04
3748;BME280;1889;50.058;8.688;2023-04-22T10:55:24;99471.02;;;21.55;43.69
3748;BME280;1889;50.058;8.688;2023-04-22T10:57:53;99464.97;;;21.40;42.97
3748;BME280;1889;50.058;8.688;2023-04-22T11:00:28;99467.42;;;21.49;42.80
3748;BME280;1889;50.058;8.688;2023-04-22T11:03:08;99462.20;;;21.47;40.85
3748;BME280;1889;50.058;8.688;2023-04-22T11:05:38;99452.22;;;21.49;40.91
3748;BME280;1889;50.058;8.688;2023-04-22T11:08:17;99451.41;;;21.54;39.95
3748;BME280;1889;50.058;8.688;2023-04-22T11:10:49;99451.33;;;21.61;40.59
3748;BME280;1889;50.058;8.688;2023-04-22T11:13:20;99449.23;;;21.59;40.03
3748;BME280;1889;50.058;8.688;2023-04-22T11:15:50;99450.58;;;21.83;39.56
3748;BME280;1889;50.058;8.688;2023-04-22T11:18:23;99447.52;;;22.00;38.63
3748;BME280;1889;50.058;8.688;2023-04-22T11:20:53;99445.49;;;22.15;37.57
3748;BME280;1889;50.058;8.688;2023-04-22T11:23:27;99448.11;;;22.28;35.77
3748;BME280;1889;50.058;8.688;2023-04-22T11:26:01;99445.81;;;22.40;35.63
3748;BME280;1889;50.058;8.688;2023-04-22T11:28:31;99443.28;;;22.50;36.36
3748;BME280;1889;50.058;8.688;2023-04-22T11:31:07;99443.53;;;22.58;35.76
3748;BME280;1889;50.058;8.688;2023-04-22T11:33:39;99439.16;;;22.73;35.91
3748;BME280;1889;50.058;8.688;2023-04-22T11:36:10;99439.19;;;22.79;35.91
3748;BME280;1889;50.058;8.688;2023-04-22T11:38:39;99427.74;;;22.77;35.05
3748;BME280;1889;50.058;8.688;2023-04-22T11:41:08;99427.84;;;22.81;35.73
3748;BME280;1889;50.058;8.688;2023-04-22T11:43:45;99429.56;;;22.82;35.89
3748;BME280;1889;50.058;8.688;2023-04-22T11:46:14;99433.58;;;22.88;34.30
3748;BME280;1889;50.058;8.688;2023-04-22T11:48:43;99429.68;;;22.97;34.81
3748;BME280;1889;50.058;8.688;2023-04-22T11:51:13;99421.01;;;23.05;34.34
3748;BME280;1889;50.058;8.688;2023-04-22T11:53:50;99421.61;;;23.14;34.56
3748;BME280;1889;50.058;8.688;2023-04-22T11:56:20;99431.97;;;23.30;34.48
3748;BME280;1889;50.058;8.688;2023-04-22T11:58:49;99428.93;;;23.23;33.76
3748;BME280;1889;50.058;8.688;2023-04-22T12:01:18;99425.24;;;23.41;34.36
3748;BME280;1889;50.058;8.688;2023-04-22T12:03:47;99424.25;;;23.53;34.77
3748;BME280;1889;50.058;8.688;2023-04-22T12:06:18;99416.75;;;23.68;34.49
3748;BME280;1889;50.058;8.688;2023-04-22T12:08:48;99413.23;;;23.67;34.34
3748;BME280;1889;50.058;8.688;2023-04-22T12:11:19;99415.50;;;23.77;34.47
3748;BME280;1889;50.058;8.688;2023-04-22T12:13:49;99411.95;;;23.77;34.40
3748;BME280;1889;50.058;8.688;2023-04-22T12:16:18;99410.09;;;23.88;34.54
3748;BME280;1889;50.058;8.688;2023-04-22T12:18:54;99405.20;;;23.88;34.16
3748;BME280;1889;50.058;8.688;2023-04-22T12:21:24;99418.40;;;23.91;33.39
3748;BME280;1889;50.058;8.688;2023-04-22T12:23:57;99405.14;;;23.73;33.90
3748;BME280;1889;50.058;8.688;2023-04-22T12:26:26;99401.78;;;23.91;33.97
3748;BME280;1889;50.058;8.688;2023-04-22T12:28:59;99410.05;;;24.00;34.40
3748;BME280;1889;50.058;8.688;2023-04-22T12:31:28;99410.83;;;23.85;34.31
3748;BME280;1889;50.058;8.688;2023-04-22T12:33:57;99405.65;;;23.99;33.80
3748;BME280;1889;50.058;8.688;2023-04-22T12:36:27;99392.84;;;23.65;33.78
3748;BME280;1889;50.058;8.688;2023-04-22T12:38:56;99387.52;;;23.80;34.47
3748;BME280;1889;50.058;8.688;2023-04-22T12:41:25;99391.19;;;23.79;33.65
3748;BME280;1889;50.058;8.688;2023-04-22T12:43:54;99387.69;;;23.93;33.63
3748;BME280;1889;50.058;8.688;2023-04-22T12:46:23;99391.56;;;24.01;32.02
3748;BME280;1889;50.058;8.688;2023-04-22T12:48:52;99397.88;;;23.84;30.93
3748;BME280;1889;50.058;8.688;2023-04-22T12:51:21;99387.84;;;24.13;31.68
3748;BME280;1889;50.058;8.688;2023-04-22T12:53:50;99391.10;;;24.43;30.93
3748;BME280;1889;50.058;8.688;2023-04-22T12:56:19;99396.49;;;24.58;31.52
3748;BME280;1889;50.058;8.688;2023-04-22T12:58:48;99397.33;;;24.64;31.14
3748;BME280;1889;50.058;8.688;2023-04-22T13:01:17;99395.67;;;24.73;31.05
3748;BME280;1889;50.058;8.688;2023-04-22T13:03:46;99397.19;;;24.81;30.86
3748;BME280;1889;50.058;8.688;2023-04-22T13:06:16;99391.23;;;24.92;30.47
3748;BME280;1889;50.058;8.688;2023-04-22T13:08:46;99395.41;;;25.16;30.71
3748;BME280;1889;50.058;8.688;2023-04-22T13:11:15;99402.97;;;25.31;30.51
3748;BME280;1889;50.058;8.688;2023-04-22T13:13:44;99405.55;;;25.42;30.48
3748;BME280;1889;50.058;8.688;2023-04-22T13:16:13;99408.11;;;24.73;30.30
3748;BME280;1889;50.058;8.688;2023-04-22T13:18:42;99404.09;;;24.89;30.56
3748;BME280;1889;50.058;8.688;2023-04-22T13:21:11;99395.92;;;24.85;30.97
3748;BME280;1889;50.058;8.688;2023-04-22T13:23:41;99405.16;;;24.61;31.11
3748;BME280;1889;50.058;8.688;2023-04-22T13:26:11;99405.45;;;24.38;31.68
3748;BME280;1889;50.058;8.688;2023-04-22T13:28:40;99411.44;;;24.15;31.59
3748;BME280;1889;50.058;8.688;2023-04-22T13:31:09;99407.33;;;24.05;32.05
3748;BME280;1889;50.058;8.688;2023-04-22T13:33:38;99410.42;;;23.63;32.70
3748;BME280;1889;50.058;8.688;2023-04-22T13:36:07;99398.27;;;23.42;32.99
3748;BME280;1889;50.058;8.688;2023-04-22T13:38:36;99405.61;;;23.35;33.42
3748;BME280;1889;50.058;8.688;2023-04-22T13:41:05;99407.00;;;23.01;33.95